Time;durP1;ratioP1;P1;durP2;ratioP2;P2;SDS_P1;SDS_P2;PMS_P1;PMS_P2;Temp;Humidity;BMP_temperature;BMP_pressure;BME280_temperature;BME280_humidity;BME280_pressure;Samples;Min_cycle;Max_cycle;Signal;HPM_P1;HPM_P2
2023/03/15 00:00:24;;;;;;;;;10.50;10.50;;;;;;;;5018577;28;11580;-87
2023/03/15 00:02:52;;;;;;;;;14.00;11.25;;;;;;;;5014390;28;11512;-88
2023/03/15 00:05:20;;;;;;;;;9.75;7.50;;;;;;;;5015578;28;11603;-88
2023/03/15 00:07:48;;;;;;;;;7.00;7.00;;;;;;;;5014343;28;11486;-88
2023/03/15 00:10:16;;;;;;;;;5.50;5.50;;;;;;;;5018968;28;11443;-87
2023/03/15 00:12:44;;;;;;;;;6.25;6.00;;;;;;;;5001659;28;11477;-86
2023/03/15 00:15:15;;;;;;;;;7.00;7.00;;;;;;;;5001656;28;11476;-87
2023/03/15 00:17:43;;;;;;;;;12.00;10.50;;;;;;;;5014406;28;11472;-87
2023/03/15 00:20:13;;;;;;;;;4.00;4.00;;;;;;;;5003463;28;11528;-87
2023/03/15 00:22:41;;;;;;;;;7.00;7.00;;;;;;;;5005885;28;11461;-87
2023/03/15 00:25:10;;;;;;;;;7.00;5.50;;;;;;;;5010356;28;11423;-86
2023/03/15 00:27:37;;;;;;;;;6.00;6.00;;;;;;;;5018230;28;11441;-87
2023/03/15 00:30:06;;;;;;;;;5.00;5.00;;;;;;;;4988053;28;11533;-87
2023/03/15 00:32:36;;;;;;;;;7.00;5.75;;;;;;;;5016075;28;11482;-86
2023/03/15 00:35:04;;;;;;;;;7.00;5.00;;;;;;;;5006659;28;11464;-86
2023/03/15 00:37:33;;;;;;;;;5.50;5.50;;;;;;;;5015814;28;11445;-86
2023/03/15 00:40:02;;;;;;;;;3.00;3.00;;;;;;;;5006097;28;11571;-86
2023/03/15 00:42:32;;;;;;;;;6.25;6.25;;;;;;;;4999869;28;11541;-86
2023/03/15 00:45:01;;;;;;;;;7.00;5.50;;;;;;;;5008121;28;11467;-87
2023/03/15 00:47:29;;;;;;;;;4.00;4.00;;;;;;;;5011486;28;11494;-87
2023/03/15 00:49:58;;;;;;;;;6.00;3.50;;;;;;;;5004250;28;11566;-88
2023/03/15 00:52:26;;;;;;;;;5.25;5.25;;;;;;;;5004041;28;11452;-87
2023/03/15 00:54:54;;;;;;;;;2.00;2.00;;;;;;;;5016316;28;11468;-87
2023/03/15 00:57:22;;;;;;;;;6.00;6.00;;;;;;;;5018545;28;11496;-87
2023/03/15 00:59:52;;;;;;;;;6.00;5.00;;;;;;;;5014771;28;11478;-86
2023/03/15 01:02:21;;;;;;;;;5.00;5.00;;;;;;;;5017281;28;11461;-86
2023/03/15 01:04:48;;;;;;;;;2.25;2.25;;;;;;;;5021864;28;11482;-86
2023/03/15 01:07:17;;;;;;;;;9.00;8.75;;;;;;;;5001103;28;11505;-87
2023/03/15 01:09:45;;;;;;;;;5.00;5.00;;;;;;;;5017746;28;12400;-87
2023/03/15 01:12:12;;;;;;;;;6.25;6.25;;;;;;;;5014549;28;11485;-86
2023/03/15 01:14:39;;;;;;;;;6.50;6.50;;;;;;;;5018267;28;11483;-87
2023/03/15 01:17:07;;;;;;;;;8.00;5.25;;;;;;;;5013553;28;11447;-87
2023/03/15 01:19:34;;;;;;;;;8.00;6.50;;;;;;;;5011520;28;11462;-86
2023/03/15 01:22:04;;;;;;;;;5.00;5.00;;;;;;;;5018781;28;11588;-87
2023/03/15 01:24:33;;;;;;;;;5.25;5.25;;;;;;;;5012837;28;11479;-88
2023/03/15 01:27:03;;;;;;;;;6.00;6.00;;;;;;;;5004832;28;11681;-88
2023/03/15 01:29:32;;;;;;;;;5.00;5.00;;;;;;;;5005464;28;11471;-88
2023/03/15 01:32:00;;;;;;;;;9.00;6.25;;;;;;;;5009579;28;11503;-87
2023/03/15 01:34:31;;;;;;;;;6.00;6.00;;;;;;;;4991345;28;11512;-88
2023/03/15 01:37:01;;;;;;;;;11.25;6.50;;;;;;;;5023559;28;11472;-88
2023/03/15 01:39:30;;;;;;;;;5.00;5.00;;;;;;;;5015552;28;11420;-87
2023/03/15 01:42:01;;;;;;;;;6.00;6.00;;;;;;;;5022442;28;11446;-87
2023/03/15 01:44:54;;;;;;;;;13.33;13.33;;;;;;;;5019400;28;11484;-88
2023/03/15 01:47:24;;;;;;;;;12.33;10.33;;;;;;;;5038197;28;11509;-87
2023/03/15 01:49:55;;;;;;;;;12.50;12.50;;;;;;;;5015785;28;11639;-88
2023/03/15 01:52:26;;;;;;;;;9.33;9.33;;;;;;;;5016460;28;11483;-87
2023/03/15 01:54:58;;;;;;;;;12.25;9.75;;;;;;;;5012608;28;11488;-88
2023/03/15 01:57:31;;;;;;;;;10.50;10.50;;;;;;;;5009432;28;11495;-87
2023/03/15 02:00:06;;;;;;;;;12.00;12.00;;;;;;;;5015323;28;11500;-87
2023/03/15 02:02:33;;;;;;;;;10.00;10.00;;;;;;;;5002129;28;11492;-87
2023/03/15 02:05:08;;;;;;;;;9.50;9.50;;;;;;;;5017773;28;11475;-87
2023/03/15 02:07:38;;;;;;;;;9.00;9.00;;;;;;;;5016411;28;11487;-87
2023/03/15 02:10:08;;;;;;;;;11.00;11.00;;;;;;;;5022773;28;11560;-86
2023/03/15 02:12:41;;;;;;;;;12.00;9.67;;;;;;;;5022942;28;11461;-88
2023/03/15 02:15:10;;;;;;;;;9.00;9.00;;;;;;;;5022574;28;11584;-87
2023/03/15 02:17:39;;;;;;;;;15.00;8.00;;;;;;;;5009900;28;11435;-87
2023/03/15 02:20:17;;;;;;;;;8.00;8.00;;;;;;;;5001435;28;11476;-87
2023/03/15 02:22:51;;;;;;;;;14.00;9.00;;;;;;;;4988619;28;11474;-87
2023/03/15 02:25:24;;;;;;;;;11.33;9.67;;;;;;;;5016585;28;11493;-87
2023/03/15 02:27:53;;;;;;;;;10.33;10.33;;;;;;;;5008150;28;11489;-87
2023/03/15 02:30:21;;;;;;;;;5.00;5.00;;;;;;;;5004447;28;11488;-87
2023/03/15 02:32:49;;;;;;;;;11.00;10.00;;;;;;;;5002068;28;11558;-86
2023/03/15 02:35:24;;;;;;;;;9.00;8.00;;;;;;;;5017636;28;11545;-87
2023/03/15 02:37:51;;;;;;;;;10.67;9.67;;;;;;;;5013702;28;8853;-87
2023/03/15 02:40:21;;;;;;;;;12.67;11.67;;;;;;;;4986274;28;8872;-87
2023/03/15 02:42:55;;;;;;;;;15.67;13.00;;;;;;;;5022230;28;8846;-88
2023/03/15 02:45:23;;;;;;;;;13.00;9.00;;;;;;;;5016903;28;8842;-87
2023/03/15 02:47:51;;;;;;;;;9.00;9.00;;;;;;;;5002954;28;8962;-87
2023/03/15 02:50:18;;;;;;;;;8.33;5.67;;;;;;;;5001646;28;8858;-87
2023/03/15 02:52:51;;;;;;;;;15.67;15.67;;;;;;;;4986383;28;8857;-88
2023/03/15 02:55:20;;;;;;;;;11.67;11.67;;;;;;;;5016788;28;9692;-88
2023/03/15 02:57:49;;;;;;;;;16.00;10.00;;;;;;;;5001775;28;8848;-87
2023/03/15 03:00:20;;;;;;;;;10.00;9.00;;;;;;;;5012428;28;8875;-87
2023/03/15 03:02:49;;;;;;;;;5.67;5.67;;;;;;;;5015405;28;8871;-87
2023/03/15 03:05:17;;;;;;;;;10.33;10.33;;;;;;;;5017340;28;8877;-87
2023/03/15 03:07:46;;;;;;;;;10.00;10.00;;;;;;;;5015604;28;8875;-88
2023/03/15 03:10:16;;;;;;;;;9.00;9.00;;;;;;;;5016979;28;8859;-87
2023/03/15 03:12:44;;;;;;;;;10.33;10.33;;;;;;;;5003628;28;8843;-87
2023/03/15 03:15:12;;;;;;;;;12.33;11.00;;;;;;;;5016242;28;8857;-87
2023/03/15 03:17:41;;;;;;;;;9.00;9.00;;;;;;;;5006731;28;8871;-88
2023/03/15 03:20:12;;;;;;;;;11.33;10.00;;;;;;;;5012540;28;8852;-88
2023/03/15 03:22:43;;;;;;;;;12.33;12.33;;;;;;;;5014617;28;9081;-88
2023/03/15 03:25:13;;;;;;;;;13.33;10.00;;;;;;;;5016353;28;8830;-87
2023/03/15 03:27:42;;;;;;;;;13.00;13.00;;;;;;;;5004852;28;8880;-87
2023/03/15 03:30:12;;;;;;;;;14.67;12.67;;;;;;;;5011163;28;8842;-86
2023/03/15 03:32:42;;;;;;;;;17.67;13.00;;;;;;;;5000649;28;8854;-86
2023/03/15 03:35:10;;;;;;;;;13.00;12.00;;;;;;;;4976072;28;9056;-88
2023/03/15 03:37:38;;;;;;;;;12.67;11.33;;;;;;;;5002880;28;11514;-88
2023/03/15 03:40:08;;;;;;;;;16.67;13.00;;;;;;;;5006178;28;8904;-86
2023/03/15 03:42:35;;;;;;;;;11.67;11.67;;;;;;;;5017213;28;8819;-86
2023/03/15 03:45:03;;;;;;;;;14.00;14.00;;;;;;;;5017268;28;8889;-85
2023/03/15 03:47:31;;;;;;;;;12.33;12.00;;;;;;;;5003272;28;8889;-85
2023/03/15 03:50:00;;;;;;;;;14.67;14.67;;;;;;;;5008963;28;11490;-86
2023/03/15 03:52:27;;;;;;;;;16.00;13.00;;;;;;;;5016633;28;11492;-87
2023/03/15 03:54:56;;;;;;;;;15.33;15.33;;;;;;;;5011547;28;11475;-87
2023/03/15 03:57:23;;;;;;;;;10.00;10.00;;;;;;;;5018413;28;11558;-89
2023/03/15 03:59:51;;;;;;;;;17.25;15.00;;;;;;;;5015401;28;12206;-86
2023/03/15 04:02:19;;;;;;;;;13.00;13.00;;;;;;;;5005539;28;11493;-87
2023/03/15 04:04:49;;;;;;;;;13.67;13.67;;;;;;;;5016402;28;12328;-87
2023/03/15 04:07:18;;;;;;;;;18.00;18.00;;;;;;;;5004673;28;11503;-87
2023/03/15 04:09:46;;;;;;;;;13.00;13.00;;;;;;;;5023803;28;11541;-87
2023/03/15 04:12:13;;;;;;;;;15.00;13.75;;;;;;;;5021268;28;11638;-86
2023/03/15 04:14:41;;;;;;;;;14.50;12.75;;;;;;;;5001785;28;11570;-87
2023/03/15 04:17:10;;;;;;;;;18.50;16.00;;;;;;;;5002330;28;11499;-87
2023/03/15 04:19:38;;;;;;;;;14.00;14.00;;;;;;;;5019436;28;11530;-86
2023/03/15 04:22:06;;;;;;;;;17.25;14.75;;;;;;;;5019151;28;11471;-87
2023/03/15 04:24:38;;;;;;;;;21.25;16.50;;;;;;;;4988528;28;11500;-88
2023/03/15 04:27:06;;;;;;;;;11.33;11.33;;;;;;;;5025485;28;11500;-88
2023/03/15 04:29:33;;;;;;;;;13.33;13.33;;;;;;;;4988893;28;11524;-88
2023/03/15 04:32:03;;;;;;;;;16.67;13.00;;;;;;;;5019128;28;11508;-88
2023/03/15 04:34:37;;;;;;;;;14.67;13.00;;;;;;;;5010232;28;11602;-88
2023/03/15 04:37:05;;;;;;;;;18.33;18.00;;;;;;;;5015665;28;11629;-88
2023/03/15 04:39:33;;;;;;;;;16.67;13.67;;;;;;;;5016857;28;11472;-88
2023/03/15 04:42:04;;;;;;;;;19.33;17.00;;;;;;;;5014357;28;11524;-88
2023/03/15 04:44:35;;;;;;;;;16.67;12.67;;;;;;;;5018281;28;11483;-88
2023/03/15 04:47:03;;;;;;;;;12.33;9.33;;;;;;;;5003435;28;11486;-88
2023/03/15 04:49:31;;;;;;;;;16.00;13.67;;;;;;;;5003909;28;11484;-88
2023/03/15 04:51:59;;;;;;;;;13.00;13.00;;;;;;;;5004684;28;11480;-87
2023/03/15 04:54:29;;;;;;;;;15.67;15.67;;;;;;;;5026680;28;11559;-87
2023/03/15 04:56:56;;;;;;;;;20.67;16.33;;;;;;;;5010728;28;8859;-87
2023/03/15 04:59:27;;;;;;;;;16.33;14.33;;;;;;;;5006138;28;8897;-87
2023/03/15 05:01:54;;;;;;;;;20.67;16.33;;;;;;;;5006305;28;8861;-89
2023/03/15 05:04:23;;;;;;;;;15.67;15.67;;;;;;;;5009314;28;8846;-87
2023/03/15 05:06:51;;;;;;;;;24.67;17.00;;;;;;;;5004776;28;8859;-87
2023/03/15 05:09:18;;;;;;;;;21.33;15.67;;;;;;;;5003809;28;8955;-88
2023/03/15 05:11:46;;;;;;;;;12.33;12.33;;;;;;;;5017765;28;11463;-87
2023/03/15 05:14:14;;;;;;;;;19.33;17.33;;;;;;;;5015494;28;8883;-87
2023/03/15 05:16:43;;;;;;;;;12.33;12.33;;;;;;;;5023101;28;8883;-88
2023/03/15 05:19:11;;;;;;;;;20.00;15.00;;;;;;;;5006975;28;11529;-88
2023/03/15 05:21:41;;;;;;;;;20.67;14.00;;;;;;;;5008988;28;11556;-88
2023/03/15 05:24:11;;;;;;;;;23.00;19.00;;;;;;;;5018136;28;11511;-88
2023/03/15 05:26:39;;;;;;;;;20.00;16.67;;;;;;;;5006352;28;8876;-88
2023/03/15 05:29:09;;;;;;;;;18.00;17.33;;;;;;;;5016947;28;11529;-88
2023/03/15 05:31:36;;;;;;;;;21.00;18.67;;;;;;;;5017126;28;11509;-87
2023/03/15 05:34:05;;;;;;;;;17.33;14.67;;;;;;;;5003887;28;11547;-88
2023/03/15 05:36:33;;;;;;;;;18.00;16.33;;;;;;;;5017519;28;11526;-88
2023/03/15 05:39:03;;;;;;;;;19.67;16.67;;;;;;;;5021932;28;11505;-88
2023/03/15 05:41:32;;;;;;;;;19.33;19.33;;;;;;;;5017259;28;11610;-87
2023/03/15 05:44:01;;;;;;;;;18.67;16.33;;;;;;;;5003472;28;11608;-87
2023/03/15 05:46:28;;;;;;;;;16.00;16.00;;;;;;;;5019488;28;11662;-87
2023/03/15 05:48:56;;;;;;;;;14.00;14.00;;;;;;;;5004091;28;11481;-87
2023/03/15 05:51:25;;;;;;;;;15.75;15.75;;;;;;;;5020871;28;11515;-85
2023/03/15 05:53:52;;;;;;;;;15.50;13.50;;;;;;;;5022725;28;11480;-88
2023/03/15 05:56:20;;;;;;;;;12.00;11.00;;;;;;;;5006358;28;11504;-84
2023/03/15 05:58:47;;;;;;;;;12.00;12.00;;;;;;;;5024375;28;11499;-88
2023/03/15 06:01:15;;;;;;;;;15.00;15.00;;;;;;;;5020153;28;11483;-88
2023/03/15 06:03:43;;;;;;;;;14.75;14.75;;;;;;;;5014183;28;11505;-86
2023/03/15 06:06:10;;;;;;;;;19.25;19.25;;;;;;;;5015922;28;11507;-84
2023/03/15 06:08:39;;;;;;;;;22.00;18.00;;;;;;;;5001958;28;11501;-86
2023/03/15 06:11:08;;;;;;;;;14.50;14.50;;;;;;;;5015896;28;12256;-80
2023/03/15 06:13:43;;;;;;;;;20.25;18.75;;;;;;;;4988574;28;11636;-81
2023/03/15 06:16:11;;;;;;;;;19.00;17.25;;;;;;;;5000219;28;11526;-82
2023/03/15 06:18:39;;;;;;;;;18.75;17.00;;;;;;;;5004799;28;11498;-82
2023/03/15 06:21:09;;;;;;;;;15.25;15.25;;;;;;;;5017490;28;11489;-83
2023/03/15 06:23:39;;;;;;;;;15.75;14.25;;;;;;;;5017748;28;11492;-82
2023/03/15 06:26:06;;;;;;;;;11.00;11.00;;;;;;;;5019797;28;11512;-85
2023/03/15 06:28:34;;;;;;;;;13.25;13.25;;;;;;;;5009156;28;11474;-83
2023/03/15 06:31:09;;;;;;;;;12.50;12.50;;;;;;;;5015673;28;11510;-80
2023/03/15 06:33:37;;;;;;;;;19.50;16.50;;;;;;;;5019752;28;11604;-79
2023/03/15 06:36:09;;;;;;;;;16.50;16.50;;;;;;;;5017519;28;11527;-80
2023/03/15 06:38:36;;;;;;;;;12.00;12.00;;;;;;;;5015821;28;11599;-85
2023/03/15 06:41:11;;;;;;;;;11.25;11.25;;;;;;;;5023700;28;11509;-77
2023/03/15 06:43:39;;;;;;;;;11.00;11.00;;;;;;;;5022173;28;11487;-80
2023/03/15 06:46:06;;;;;;;;;13.75;11.75;;;;;;;;5017608;28;11486;-81
2023/03/15 06:48:41;;;;;;;;;12.00;10.50;;;;;;;;5016744;28;11586;-77
2023/03/15 06:51:13;;;;;;;;;11.50;11.50;;;;;;;;5002789;28;11632;-79
2023/03/15 06:53:40;;;;;;;;;12.50;10.25;;;;;;;;5018561;28;11494;-78
2023/03/15 06:56:19;;;;;;;;;18.75;16.75;;;;;;;;5001021;28;11489;-78
2023/03/15 06:58:56;;;;;;;;;12.50;11.00;;;;;;;;5012391;28;11591;-78
2023/03/15 07:01:23;;;;;;;;;14.00;13.50;;;;;;;;5005409;28;11650;-81
2023/03/15 07:03:51;;;;;;;;;8.50;7.75;;;;;;;;5024856;28;11505;-79
2023/03/15 07:06:21;;;;;;;;;9.50;9.50;;;;;;;;4998114;28;11458;-79
2023/03/15 07:08:52;;;;;;;;;22.00;20.75;;;;;;;;5021653;28;11608;-81
2023/03/15 07:11:26;;;;;;;;;18.25;18.25;;;;;;;;5032756;28;11514;-78
2023/03/15 07:13:54;;;;;;;;;16.50;15.50;;;;;;;;4998485;28;11519;-83
2023/03/15 07:16:21;;;;;;;;;19.25;16.50;;;;;;;;5017502;28;11603;-81
2023/03/15 07:18:49;;;;;;;;;15.50;15.50;;;;;;;;5016540;28;11502;-78
2023/03/15 07:21:16;;;;;;;;;22.25;18.75;;;;;;;;5015569;28;11472;-80
2023/03/15 07:23:44;;;;;;;;;13.50;12.00;;;;;;;;5017788;28;11609;-81
2023/03/15 07:26:20;;;;;;;;;8.00;8.00;;;;;;;;5015592;28;11481;-79
2023/03/15 07:28:59;;;;;;;;;10.25;7.25;;;;;;;;5017704;28;11444;-79
2023/03/15 07:31:30;;;;;;;;;13.25;8.50;;;;;;;;5013565;28;11483;-78
2023/03/15 07:34:06;;;;;;;;;7.00;7.00;;;;;;;;5011242;28;11472;-83
2023/03/15 07:36:34;;;;;;;;;12.00;10.00;;;;;;;;5014226;28;11552;-81
2023/03/15 07:39:03;;;;;;;;;6.00;6.00;;;;;;;;5009644;28;11468;-81
2023/03/15 07:41:31;;;;;;;;;10.25;9.75;;;;;;;;5003820;28;11500;-84
2023/03/15 07:44:03;;;;;;;;;6.25;6.25;;;;;;;;5015680;28;12338;-81
2023/03/15 07:46:38;;;;;;;;;10.50;10.25;;;;;;;;4999942;28;11587;-80
2023/03/15 07:49:09;;;;;;;;;12.25;12.00;;;;;;;;5016988;28;11489;-82
2023/03/15 07:51:36;;;;;;;;;13.00;12.25;;;;;;;;5017206;28;12265;-82
2023/03/15 07:54:04;;;;;;;;;13.50;11.00;;;;;;;;5009917;28;12491;-80
2023/03/15 07:56:34;;;;;;;;;22.50;22.50;;;;;;;;5008499;28;11510;-79
2023/03/15 07:59:05;;;;;;;;;17.25;17.25;;;;;;;;5013783;28;11551;-80
2023/03/15 08:01:34;;;;;;;;;21.50;14.50;;;;;;;;5001752;28;11509;-80
2023/03/15 08:04:03;;;;;;;;;13.50;12.25;;;;;;;;5013279;28;11527;-84
2023/03/15 08:06:32;;;;;;;;;13.25;13.25;;;;;;;;4997658;28;11493;-80
2023/03/15 08:09:10;;;;;;;;;17.75;13.25;;;;;;;;5012148;28;11968;-81
2023/03/15 08:11:54;;;;;;;;;12.50;12.25;;;;;;;;4996148;28;11520;-80
2023/03/15 08:15:03;;;;;;;;;11.50;10.75;;;;;;;;5007112;28;11511;-81
2023/03/15 08:18:06;;;;;;;;;;;;;;;;;;;;;
2023/03/15 08:20:52;;;;;;;;;13.75;13.75;;;;;;;;5015010;28;11486;-80
2023/03/15 08:23:21;;;;;;;;;10.25;10.25;;;;;;;;5017184;28;11466;-81
2023/03/15 08:25:52;;;;;;;;;17.50;13.50;;;;;;;;5017107;28;11478;-81
2023/03/15 08:28:20;;;;;;;;;11.25;11.25;;;;;;;;5018517;28;11626;-80
2023/03/15 08:30:50;;;;;;;;;11.00;11.00;;;;;;;;5013116;28;11632;-81
2023/03/15 08:33:28;;;;;;;;;8.00;8.00;;;;;;;;5013128;28;11575;-79
2023/03/15 08:35:56;;;;;;;;;8.00;8.00;;;;;;;;5010676;28;11464;-82
2023/03/15 08:38:26;;;;;;;;;8.50;8.50;;;;;;;;5015029;28;11825;-80
2023/03/15 08:40:58;;;;;;;;;10.00;7.75;;;;;;;;4997195;28;11617;-82
2023/03/15 08:43:27;;;;;;;;;72.50;50.25;;;;;;;;5011809;28;11512;-81
2023/03/15 08:45:57;;;;;;;;;11.50;8.50;;;;;;;;4995646;28;11544;-83
2023/03/15 08:48:26;;;;;;;;;11.00;7.00;;;;;;;;5016106;28;11540;-81
2023/03/15 08:50:57;;;;;;;;;7.75;7.75;;;;;;;;5015879;28;11479;-79
2023/03/15 08:53:27;;;;;;;;;6.50;6.00;;;;;;;;5011500;28;11497;-80
2023/03/15 08:55:55;;;;;;;;;14.75;9.25;;;;;;;;5015776;28;11449;-80
2023/03/15 08:58:23;;;;;;;;;10.50;8.25;;;;;;;;4993698;28;11484;-77
2023/03/15 09:00:54;;;;;;;;;9.25;9.25;;;;;;;;4993357;28;11647;-81
2023/03/15 09:03:26;;;;;;;;;11.00;11.00;;;;;;;;5018186;28;11521;-80
2023/03/15 09:05:57;;;;;;;;;9.75;7.75;;;;;;;;5013250;28;12455;-81
2023/03/15 09:08:32;;;;;;;;;6.50;5.50;;;;;;;;5005840;28;11465;-78
2023/03/15 09:11:00;;;;;;;;;10.25;8.00;;;;;;;;5012571;28;11466;-81
2023/03/15 09:13:28;;;;;;;;;7.75;7.25;;;;;;;;5022322;28;11455;-81
2023/03/15 09:15:56;;;;;;;;;7.25;6.00;;;;;;;;5024935;28;11496;-80
2023/03/15 09:18:28;;;;;;;;;8.75;7.50;;;;;;;;5007915;28;11411;-82
2023/03/15 09:21:09;;;;;;;;;6.75;6.75;;;;;;;;5018778;28;11474;-79
2023/03/15 09:23:36;;;;;;;;;6.50;6.50;;;;;;;;5026732;28;11649;-82
2023/03/15 09:26:05;;;;;;;;;6.25;6.25;;;;;;;;5022088;28;11512;-81
2023/03/15 09:28:33;;;;;;;;;9.75;8.00;;;;;;;;5024835;28;11435;-79
2023/03/15 09:31:06;;;;;;;;;5.50;5.50;;;;;;;;5023772;28;11416;-82
2023/03/15 09:33:35;;;;;;;;;3.00;3.00;;;;;;;;5020717;28;11390;-83
2023/03/15 09:36:03;;;;;;;;;7.25;7.25;;;;;;;;5015663;28;12328;-81
2023/03/15 09:38:31;;;;;;;;;4.00;4.00;;;;;;;;5016458;28;11430;-82
2023/03/15 09:41:12;;;;;;;;;9.00;5.00;;;;;;;;5017466;28;11412;-78
2023/03/15 09:43:58;;;;;;;;;7.75;5.50;;;;;;;;5013804;28;11065;-82
2023/03/15 09:46:29;;;;;;;;;8.00;8.00;;;;;;;;5014755;28;11179;-82
2023/03/15 09:49:01;;;;;;;;;10.00;7.25;;;;;;;;5024375;28;11177;-84
2023/03/15 09:51:39;;;;;;;;;5.75;5.75;;;;;;;;5023346;28;11042;-83
2023/03/15 09:54:11;;;;;;;;;7.50;7.50;;;;;;;;5023818;28;11077;-77
2023/03/15 09:56:45;;;;;;;;;6.50;6.50;;;;;;;;5019841;28;11381;-80
2023/03/15 09:59:21;;;;;;;;;10.75;10.75;;;;;;;;5014518;28;11263;-81
2023/03/15 10:01:49;;;;;;;;;11.75;9.00;;;;;;;;5016760;28;11207;-83
2023/03/15 10:04:25;;;;;;;;;14.75;14.25;;;;;;;;5020429;28;11145;-81
2023/03/15 10:06:55;;;;;;;;;14.75;13.25;;;;;;;;5017660;28;12057;-80
2023/03/15 10:09:25;;;;;;;;;11.00;11.00;;;;;;;;5018161;28;11287;-78
2023/03/15 10:12:02;;;;;;;;;17.75;14.00;;;;;;;;5023244;28;11019;-81
2023/03/15 10:14:59;;;;;;;;;15.25;12.50;;;;;;;;5020936;28;11210;-77
2023/03/15 10:17:36;;;;;;;;;9.25;9.25;;;;;;;;5021164;28;11038;-80
2023/03/15 10:20:19;;;;;;;;;5.50;5.50;;;;;;;;5026701;28;10828;-81
2023/03/15 10:22:52;;;;;;;;;8.50;8.25;;;;;;;;5034089;28;10826;-83
2023/03/15 10:25:24;;;;;;;;;8.25;8.25;;;;;;;;5021115;28;11480;-80
2023/03/15 10:27:54;;;;;;;;;11.00;9.25;;;;;;;;5015699;28;11350;-80
2023/03/15 10:30:23;;;;;;;;;6.25;5.00;;;;;;;;5015418;28;10641;-81
2023/03/15 10:32:56;;;;;;;;;5.00;5.00;;;;;;;;5015945;28;10334;-81
2023/03/15 10:35:26;;;;;;;;;6.75;6.75;;;;;;;;5017450;28;10319;-81
2023/03/15 10:37:54;;;;;;;;;5.75;5.75;;;;;;;;5012485;28;11045;-81
2023/03/15 10:40:41;;;;;;;;;5.00;5.00;;;;;;;;5031369;28;11326;-83
2023/03/15 10:43:18;;;;;;;;;10.75;8.00;;;;;;;;5028741;28;10405;-81
2023/03/15 10:46:15;;;;;;;;;12.00;9.00;;;;;;;;5027038;28;10219;-81
2023/03/15 10:48:56;;;;;;;;;8.00;8.00;;;;;;;;5020953;28;10405;-81
2023/03/15 10:51:31;;;;;;;;;10.00;8.50;;;;;;;;5015232;28;10306;-80
2023/03/15 10:54:01;;;;;;;;;8.00;8.00;;;;;;;;5017098;28;10317;-82
2023/03/15 10:56:30;;;;;;;;;5.50;5.50;;;;;;;;5006145;28;10235;-79
2023/03/15 10:59:00;;;;;;;;;7.25;5.00;;;;;;;;5020601;28;10249;-81
2023/03/15 11:01:33;;;;;;;;;7.25;7.25;;;;;;;;5024239;28;10102;-80
2023/03/15 11:04:15;;;;;;;;;8.25;8.25;;;;;;;;5025735;28;10145;-81
2023/03/15 11:06:47;;;;;;;;;6.00;6.00;;;;;;;;5028051;28;10244;-80
2023/03/15 11:09:16;;;;;;;;;5.00;5.00;;;;;;;;5020796;28;10165;-79
2023/03/15 11:12:01;;;;;;;;;4.25;4.25;;;;;;;;5023816;28;10136;-81
2023/03/15 11:14:34;;;;;;;;;8.00;8.00;;;;;;;;5008505;28;10062;-83
2023/03/15 11:17:06;;;;;;;;;7.50;7.50;;;;;;;;5019922;28;10185;-82
2023/03/15 11:19:40;;;;;;;;;8.00;5.00;;;;;;;;5024039;28;11047;-79
2023/03/15 11:22:13;;;;;;;;;5.50;5.50;;;;;;;;5013478;28;10078;-81
2023/03/15 11:24:43;;;;;;;;;24.00;18.25;;;;;;;;5024642;28;10038;-81
2023/03/15 11:27:15;;;;;;;;;4.75;4.75;;;;;;;;5022206;28;10334;-82
2023/03/15 11:29:47;;;;;;;;;4.00;3.75;;;;;;;;5023209;28;9772;-81
2023/03/15 11:32:30;;;;;;;;;5.00;5.00;;;;;;;;5021314;28;10044;-82
2023/03/15 11:35:03;;;;;;;;;9.50;9.50;;;;;;;;5002197;28;10162;-82
2023/03/15 11:37:38;;;;;;;;;7.00;5.50;;;;;;;;5002798;28;10256;-81
2023/03/15 11:40:12;;;;;;;;;5.50;4.50;;;;;;;;5019247;28;10159;-81
2023/03/15 11:42:45;;;;;;;;;3.00;3.00;;;;;;;;5023772;28;9902;-81
2023/03/15 11:45:23;;;;;;;;;8.50;5.50;;;;;;;;5005289;28;9785;-83
2023/03/15 11:47:54;;;;;;;;;6.25;5.25;;;;;;;;5018285;28;9740;-84
2023/03/15 11:50:24;;;;;;;;;4.50;3.25;;;;;;;;5017582;28;9611;-81
2023/03/15 11:53:02;;;;;;;;;3.25;3.25;;;;;;;;5022758;28;9602;-84
2023/03/15 11:55:30;;;;;;;;;3.50;2.00;;;;;;;;5026205;28;9576;-83
2023/03/15 11:57:57;;;;;;;;;17.25;12.25;;;;;;;;5016963;28;9628;-84
2023/03/15 12:00:51;;;;;;;;;5.25;2.25;;;;;;;;5024591;28;10032;-87
2023/03/15 12:03:37;;;;;;;;;2.50;2.50;;;;;;;;5016596;28;9759;-81
2023/03/15 12:06:47;;;;;;;;;3.00;3.00;;;;;;;;5006607;28;9788;-85
2023/03/15 12:09:46;;;;;;;;;4.50;4.50;;;;;;;;5015657;28;9878;-83
2023/03/15 12:12:35;;;;;;;;;3.00;3.00;;;;;;;;5016108;28;10077;-82
2023/03/15 12:15:05;;;;;;;;;4.25;4.25;;;;;;;;4997344;28;9928;-84
2023/03/15 12:17:43;;;;;;;;;2.00;2.00;;;;;;;;5020977;28;10128;-83
2023/03/15 12:20:20;;;;;;;;;5.00;3.50;;;;;;;;5001687;28;10125;-82
2023/03/15 12:22:52;;;;;;;;;4.25;4.00;;;;;;;;5003890;28;10196;-82
2023/03/15 12:25:25;;;;;;;;;6.25;6.25;;;;;;;;5012767;28;10100;-80
2023/03/15 12:27:55;;;;;;;;;4.00;4.00;;;;;;;;4996993;28;10396;-84
2023/03/15 12:30:25;;;;;;;;;4.25;4.25;;;;;;;;4999483;28;10267;-85
2023/03/15 12:32:58;;;;;;;;;5.75;3.00;;;;;;;;5017498;28;10213;-81
2023/03/15 12:35:45;;;;;;;;;2.00;2.00;;;;;;;;5019222;28;10435;-79
2023/03/15 12:38:16;;;;;;;;;2.75;2.75;;;;;;;;4999634;28;10258;-80
2023/03/15 12:40:57;;;;;;;;;3.00;3.00;;;;;;;;5017188;28;10093;-81
2023/03/15 12:43:39;;;;;;;;;1.25;1.25;;;;;;;;5021666;28;10154;-81
2023/03/15 12:46:08;;;;;;;;;4.25;2.75;;;;;;;;5018166;28;10148;-80
2023/03/15 12:48:35;;;;;;;;;2.00;2.00;;;;;;;;5027706;28;10066;-80
2023/03/15 12:51:05;;;;;;;;;2.25;2.25;;;;;;;;5027553;28;10168;-80
2023/03/15 12:53:46;;;;;;;;;1.00;1.00;;;;;;;;5019630;28;10094;-80
2023/03/15 12:56:42;;;;;;;;;1.00;1.00;;;;;;;;5013212;28;11382;-79
2023/03/15 12:59:23;;;;;;;;;4.00;2.00;;;;;;;;5013109;28;10115;-80
2023/03/15 13:01:52;;;;;;;;;2.50;2.50;;;;;;;;5027026;28;10102;-78
2023/03/15 13:04:20;;;;;;;;;3.00;1.50;;;;;;;;5023352;28;10057;-80
2023/03/15 13:07:08;;;;;;;;;2.00;2.00;;;;;;;;5032194;28;9931;-78
2023/03/15 13:10:08;;;;;;;;;3.00;3.00;;;;;;;;5017328;28;10111;-80
2023/03/15 13:12:44;;;;;;;;;3.00;1.50;;;;;;;;5028688;28;10105;-81
2023/03/15 13:15:14;;;;;;;;;5.50;5.50;;;;;;;;5023564;28;10019;-78
2023/03/15 13:17:50;;;;;;;;;4.25;2.50;;;;;;;;5029610;28;10192;-80
2023/03/15 13:20:38;;;;;;;;;4.50;4.50;;;;;;;;5023343;28;9878;-80
2023/03/15 13:23:15;;;;;;;;;5.00;5.00;;;;;;;;5016889;28;9804;-81
2023/03/15 13:25:52;;;;;;;;;6.00;2.25;;;;;;;;5014627;28;9953;-80
2023/03/15 13:28:24;;;;;;;;;10.50;4.75;;;;;;;;5023345;28;9702;-79
2023/03/15 13:30:53;;;;;;;;;8.50;8.50;;;;;;;;5026165;28;9728;-79
2023/03/15 13:33:22;;;;;;;;;3.00;3.00;;;;;;;;5009362;28;10374;-80
2023/03/15 13:35:57;;;;;;;;;3.00;3.00;;;;;;;;5013918;28;9088;-80
2023/03/15 13:38:31;;;;;;;;;5.00;3.00;;;;;;;;5017133;28;9044;-80
2023/03/15 13:41:00;;;;;;;;;1.00;1.00;;;;;;;;5020485;28;9044;-81
2023/03/15 13:43:41;;;;;;;;;1.67;1.00;;;;;;;;5020824;28;8869;-81
2023/03/15 13:46:08;;;;;;;;;4.00;2.33;;;;;;;;5021667;28;8957;-82
2023/03/15 13:48:42;;;;;;;;;3.00;3.00;;;;;;;;5023897;28;9078;-82
2023/03/15 13:51:16;;;;;;;;;2.67;2.67;;;;;;;;5026717;28;9094;-81
2023/03/15 13:53:46;;;;;;;;;5.67;5.67;;;;;;;;5026485;28;9155;-79
2023/03/15 13:56:18;;;;;;;;;10.00;10.00;;;;;;;;5027094;28;9270;-81
2023/03/15 13:58:48;;;;;;;;;4.33;3.33;;;;;;;;5025675;28;10317;-79
2023/03/15 14:01:15;;;;;;;;;3.00;3.00;;;;;;;;5025178;28;9300;-79
2023/03/15 14:03:44;;;;;;;;;4.67;3.33;;;;;;;;5013614;28;9215;-82
2023/03/15 14:06:14;;;;;;;;;5.00;3.33;;;;;;;;5005017;28;9079;-80
2023/03/15 14:08:42;;;;;;;;;3.00;3.00;;;;;;;;5021486;28;9323;-79
2023/03/15 14:11:13;;;;;;;;;3.67;2.00;;;;;;;;5019507;28;9179;-80
2023/03/15 14:13:52;;;;;;;;;2.00;2.00;;;;;;;;5011027;28;9256;-81
2023/03/15 14:16:33;;;;;;;;;2.25;2.25;;;;;;;;5027496;28;9340;-79
2023/03/15 14:19:17;;;;;;;;;4.25;3.00;;;;;;;;5008903;28;9613;-80
2023/03/15 14:21:47;;;;;;;;;3.00;3.00;;;;;;;;5025521;28;9594;-80
2023/03/15 14:24:18;;;;;;;;;1.50;1.50;;;;;;;;5021824;28;9549;-83
2023/03/15 14:26:46;;;;;;;;;2.00;2.00;;;;;;;;5014791;28;9456;-81
2023/03/15 14:29:26;;;;;;;;;1.00;1.00;;;;;;;;5013462;28;9395;-84
2023/03/15 14:31:54;;;;;;;;;1.33;1.00;;;;;;;;4988386;28;9480;-83
2023/03/15 14:34:25;;;;;;;;;2.67;2.67;;;;;;;;5016779;28;9250;-83
2023/03/15 14:36:58;;;;;;;;;3.33;1.67;;;;;;;;5014765;28;9178;-84
2023/03/15 14:39:29;;;;;;;;;6.00;5.00;;;;;;;;5006878;28;9087;-84
2023/03/15 14:41:56;;;;;;;;;12.00;8.33;;;;;;;;4988719;28;9013;-83
2023/03/15 14:44:28;;;;;;;;;3.75;2.00;;;;;;;;5017502;28;9175;-80
2023/03/15 14:46:55;;;;;;;;;2.50;2.50;;;;;;;;5015422;28;8854;-81
2023/03/15 14:49:24;;;;;;;;;2.00;2.00;;;;;;;;5023447;28;8870;-84
2023/03/15 14:51:56;;;;;;;;;1.25;1.25;;;;;;;;5008631;28;8884;-82
2023/03/15 14:54:36;;;;;;;;;0.75;0.75;;;;;;;;5025339;28;9006;-80
2023/03/15 14:57:04;;;;;;;;;1.00;1.00;;;;;;;;5023981;28;8985;-80
2023/03/15 14:59:37;;;;;;;;;1.00;1.00;;;;;;;;5024217;28;8878;-82
2023/03/15 15:02:17;;;;;;;;;2.00;2.00;;;;;;;;5023175;28;8853;-79